createdAt,value
2022-10-05T00:00:16.516Z,1.58
2022-10-05T00:02:44.224Z,1.15
2022-10-05T00:05:33.127Z,1.35
2022-10-05T00:08:11.853Z,1.23
2022-10-05T00:10:41.443Z,1.52
2022-10-05T00:13:19.548Z,1.70
2022-10-05T00:15:46.909Z,1.42
2022-10-05T00:18:16.544Z,0.93
2022-10-05T00:20:44.702Z,1.48
2022-10-05T00:23:21.567Z,1.23
2022-10-05T00:28:26.551Z,1.17
2022-10-05T00:30:59.167Z,1.08
2022-10-05T00:33:27.587Z,1.70
2022-10-05T00:35:55.371Z,1.23
2022-10-05T00:38:22.635Z,1.00
2022-10-05T00:41:04.544Z,1.48
2022-10-05T00:43:46.282Z,1.30
2022-10-05T00:46:24.003Z,1.23
2022-10-05T00:49:12.911Z,0.73
2022-10-05T00:51:44.058Z,1.05
2022-10-05T00:54:18.457Z,0.88
2022-10-05T00:56:51.389Z,1.17
2022-10-05T00:59:45.853Z,0.98
2022-10-05T01:02:36.910Z,0.90
2022-10-05T01:05:16.493Z,0.75
2022-10-05T01:07:59.425Z,1.25
2022-10-05T01:10:34.511Z,1.13
2022-10-05T01:13:23.443Z,1.52
2022-10-05T01:16:04.242Z,1.40
2022-10-05T01:18:44.308Z,1.00
2022-10-05T01:21:27.809Z,1.05
2022-10-05T01:24:10.647Z,1.10
2022-10-05T01:26:43.709Z,0.75
2022-10-05T01:29:16.854Z,0.68
2022-10-05T01:32:02.831Z,1.33
2022-10-05T01:34:40.840Z,0.73
2022-10-05T01:37:27.737Z,1.10
2022-10-05T01:40:01.057Z,1.20
2022-10-05T01:42:30.577Z,1.35
2022-10-05T01:45:13.499Z,1.05
2022-10-05T01:47:48.137Z,0.80
2022-10-05T01:50:30.961Z,1.00
2022-10-05T01:53:39.348Z,1.10
2022-10-05T01:56:24.838Z,0.90
2022-10-05T01:59:08.160Z,0.52
2022-10-05T02:01:57.573Z,0.60
2022-10-05T02:05:03.645Z,0.80
2022-10-05T02:07:29.557Z,0.47
2022-10-05T02:10:04.796Z,0.80
2022-10-05T02:12:37.515Z,0.90
2022-10-05T02:15:15.109Z,0.70
2022-10-05T02:17:59.232Z,0.30
2022-10-05T02:20:31.665Z,0.55
2022-10-05T02:23:09.467Z,0.52
2022-10-05T02:25:43.908Z,0.82
2022-10-05T02:28:14.655Z,0.40
2022-10-05T02:30:50.390Z,0.45
2022-10-05T02:33:27.469Z,0.68
2022-10-05T02:35:54.989Z,0.30
2022-10-05T02:38:36.770Z,0.85
2022-10-05T02:41:56.438Z,0.93
2022-10-05T02:44:37.466Z,0.70
2022-10-05T02:47:29.861Z,0.73
2022-10-05T02:50:12.221Z,1.10
2022-10-05T02:52:48.180Z,0.68
2022-10-05T02:55:34.031Z,0.93
2022-10-05T02:58:09.468Z,1.13
2022-10-05T03:00:45.737Z,1.13
2022-10-05T03:03:26.892Z,1.13
2022-10-05T03:06:03.778Z,1.98
2022-10-05T03:08:44.887Z,1.77
2022-10-05T03:11:24.114Z,1.65
2022-10-05T03:14:12.994Z,1.70
2022-10-05T03:17:09.130Z,1.40
2022-10-05T03:19:49.902Z,1.67
2022-10-05T03:22:48.867Z,1.42
2022-10-05T03:25:39.364Z,1.42
2022-10-05T03:28:15.105Z,1.52
2022-10-05T03:30:52.047Z,1.45
2022-10-05T03:33:39.526Z,1.58
2022-10-05T03:36:16.928Z,1.60
2022-10-05T03:38:47.720Z,1.38
2022-10-05T03:41:40.470Z,1.30
2022-10-05T03:44:25.164Z,1.13
2022-10-05T03:47:37.340Z,1.35
2022-10-05T03:50:20.218Z,1.23
2022-10-05T03:53:09.253Z,1.40
2022-10-05T03:55:50.034Z,1.42
2022-10-05T03:58:26.169Z,0.85
2022-10-05T04:00:57.751Z,1.67
2022-10-05T04:03:32.791Z,1.50
2022-10-05T04:06:08.332Z,1.35
2022-10-05T04:08:45.377Z,1.10
2022-10-05T04:11:24.222Z,1.20
2022-10-05T04:13:57.939Z,1.13
2022-10-05T04:16:29.223Z,1.02
2022-10-05T04:19:19.180Z,1.17
2022-10-05T04:21:57.734Z,1.40
2022-10-05T04:24:35.097Z,1.15
2022-10-05T04:27:11.051Z,0.95
2022-10-05T04:30:18.672Z,0.93
2022-10-05T04:32:55.046Z,0.50
2022-10-05T04:35:48.035Z,1.20
2022-10-05T04:38:36.058Z,0.80
2022-10-05T04:41:35.290Z,1.33
2022-10-05T04:44:11.142Z,1.00
2022-10-05T04:47:22.436Z,1.30
2022-10-05T04:50:17.751Z,1.10
2022-10-05T04:53:00.200Z,1.05
2022-10-05T04:55:39.612Z,1.10
2022-10-05T04:58:19.419Z,1.10
2022-10-05T05:01:07.876Z,1.23
2022-10-05T05:03:53.037Z,1.27
2022-10-05T05:06:57.798Z,0.68
2022-10-05T05:09:47.988Z,0.95
2022-10-05T05:12:33.027Z,1.00
2022-10-05T05:15:15.434Z,1.20
2022-10-05T05:18:06.055Z,1.33
2022-10-05T05:21:00.002Z,1.13
2022-10-05T05:23:48.764Z,1.10
2022-10-05T05:26:46.441Z,1.42
2022-10-05T05:29:43.068Z,1.52
2022-10-05T05:32:18.566Z,0.75
2022-10-05T05:34:56.246Z,0.63
2022-10-05T05:37:26.477Z,0.60
2022-10-05T05:39:53.193Z,1.08
2022-10-05T05:42:51.030Z,1.15
2022-10-05T05:45:26.691Z,1.30
2022-10-05T05:47:55.075Z,1.23
2022-10-05T05:50:47.107Z,1.15
2022-10-05T05:53:26.083Z,1.30
2022-10-05T05:56:01.411Z,1.15
2022-10-05T05:58:43.399Z,1.30
2022-10-05T06:01:33.247Z,1.02
2022-10-05T06:04:27.837Z,1.13
2022-10-05T06:06:58.197Z,1.65
2022-10-05T06:09:47.130Z,1.30
2022-10-05T06:12:22.511Z,0.90
2022-10-05T06:14:56.567Z,0.73
2022-10-05T06:17:52.804Z,1.45
2022-10-05T06:20:27.358Z,0.90
2022-10-05T06:22:58.811Z,1.58
2022-10-05T06:25:41.844Z,1.40
2022-10-05T06:28:18.132Z,1.42
2022-10-05T06:30:59.752Z,1.92
2022-10-05T06:33:49.359Z,1.75
2022-10-05T06:37:06.438Z,1.45
2022-10-05T06:40:00.048Z,0.77
2022-10-05T06:42:30.409Z,1.15
2022-10-05T06:45:21.562Z,1.40
2022-10-05T06:48:07.025Z,1.70
2022-10-05T06:50:58.151Z,1.30
2022-10-05T06:53:45.340Z,0.88
2022-10-05T06:56:37.332Z,1.95
2022-10-05T06:59:41.523Z,1.17
2022-10-05T07:02:24.662Z,0.90
2022-10-05T07:05:10.809Z,0.85
2022-10-05T07:07:40.516Z,1.60
2022-10-05T07:10:31.312Z,1.25
2022-10-05T07:13:19.364Z,1.38
2022-10-05T07:15:54.996Z,1.23
2022-10-05T07:18:47.064Z,1.75
2022-10-05T07:21:35.636Z,1.73
2022-10-05T07:24:22.653Z,1.42
2022-10-05T07:27:08.962Z,1.67
2022-10-05T07:29:54.384Z,1.50
2022-10-05T07:32:45.843Z,1.52
2022-10-05T07:35:59.744Z,1.20
2022-10-05T07:38:36.074Z,1.60
2022-10-05T07:41:11.176Z,1.63
2022-10-05T07:44:02.500Z,0.88
2022-10-05T07:46:56.788Z,0.75
2022-10-05T07:49:50.530Z,2.22
2022-10-05T07:52:24.058Z,0.90
2022-10-05T07:55:21.642Z,1.58
2022-10-05T07:58:03.604Z,1.65
2022-10-05T08:01:04.820Z,1.15
2022-10-05T08:04:03.808Z,1.42
2022-10-05T08:06:45.995Z,1.42
2022-10-05T08:09:13.111Z,1.10
2022-10-05T08:12:31.834Z,1.67
2022-10-05T08:15:15.634Z,0.82
2022-10-05T08:18:00.690Z,0.50
2022-10-05T08:20:57.824Z,1.80
2022-10-05T08:23:40.964Z,1.27
2022-10-05T08:26:35.811Z,1.40
2022-10-05T08:31:51.889Z,1.40
2022-10-05T08:34:45.720Z,1.42
2022-10-05T08:37:27.664Z,1.45
2022-10-05T08:40:21.404Z,1.35
2022-10-05T08:43:11.436Z,1.83
2022-10-05T08:46:17.753Z,0.88
2022-10-05T08:49:20.596Z,1.25
2022-10-05T08:52:11.949Z,0.45
2022-10-05T08:54:38.792Z,1.42
2022-10-05T08:57:24.575Z,1.73
2022-10-05T08:59:54.564Z,1.23
2022-10-05T09:02:59.140Z,1.30
2022-10-05T09:06:03.690Z,0.73
2022-10-05T09:08:49.545Z,0.73
2022-10-05T09:11:36.384Z,1.13
2022-10-05T09:14:15.547Z,1.60
2022-10-05T09:17:07.254Z,0.70
2022-10-05T09:20:15.144Z,1.27
2022-10-05T09:23:20.719Z,0.70
2022-10-05T09:25:59.331Z,1.95
2022-10-05T09:29:18.521Z,0.88
2022-10-05T09:32:06.606Z,1.17
2022-10-05T09:35:10.992Z,1.10
2022-10-05T09:37:38.477Z,0.68
2022-10-05T09:40:41.686Z,1.42
2022-10-05T09:43:27.433Z,0.82
2022-10-05T09:46:18.884Z,1.48
2022-10-05T09:49:01.285Z,0.98
2022-10-05T09:51:40.219Z,1.63
2022-10-05T09:54:48.954Z,1.40
2022-10-05T09:57:49.280Z,1.60
2022-10-05T10:00:38.648Z,1.20
2022-10-05T10:03:43.289Z,1.80
2022-10-05T10:06:31.471Z,1.35
2022-10-05T10:09:16.921Z,1.30
2022-10-05T10:12:02.340Z,1.20
2022-10-05T10:14:54.281Z,0.98
2022-10-05T10:17:35.279Z,1.48
2022-10-05T10:20:12.865Z,1.00
2022-10-05T10:22:54.712Z,0.95
2022-10-05T10:28:17.895Z,0.75
2022-10-05T10:31:03.560Z,1.02
2022-10-05T10:33:49.021Z,1.40
2022-10-05T10:36:51.917Z,1.23
2022-10-05T10:39:39.274Z,1.30
2022-10-05T10:42:15.158Z,1.38
2022-10-05T10:45:02.150Z,1.40
2022-10-05T10:47:59.810Z,0.98
2022-10-05T10:50:47.835Z,1.40
2022-10-05T10:53:39.045Z,1.40
2022-10-05T10:56:26.985Z,1.70
2022-10-05T10:59:31.785Z,1.38
2022-10-05T11:02:10.761Z,0.93
2022-10-05T11:04:54.789Z,1.38
2022-10-05T11:07:46.469Z,1.23
2022-10-05T11:10:51.190Z,1.35
2022-10-05T11:13:36.982Z,1.95
2022-10-05T11:16:19.817Z,1.58
2022-10-05T11:19:08.191Z,1.45
2022-10-05T11:21:46.198Z,2.00
2022-10-05T11:24:26.235Z,1.83
2022-10-05T11:27:09.539Z,1.70
2022-10-05T11:30:11.549Z,2.00
2022-10-05T11:32:57.760Z,1.90
2022-10-05T11:35:50.238Z,1.90
2022-10-05T11:38:32.390Z,2.15
2022-10-05T11:41:31.391Z,1.92
2022-10-05T11:44:22.642Z,2.10
2022-10-05T11:47:24.492Z,1.92
2022-10-05T11:50:19.057Z,1.88
2022-10-05T11:53:15.246Z,2.40
2022-10-05T11:56:04.349Z,2.30
2022-10-05T11:58:41.293Z,2.33
2022-10-05T12:01:36.624Z,2.22
2022-10-05T12:04:20.930Z,2.20
2022-10-05T12:07:04.791Z,2.28
2022-10-05T12:09:34.376Z,2.30
2022-10-05T12:12:11.943Z,2.20
2022-10-05T12:15:25.635Z,2.45
2022-10-05T12:18:01.228Z,2.13
2022-10-05T12:20:33.598Z,1.93
2022-10-05T12:23:14.297Z,2.00
2022-10-05T12:26:01.272Z,1.98
2022-10-05T12:28:51.418Z,2.03
2022-10-05T12:31:26.327Z,1.70
2022-10-05T12:34:02.125Z,2.00
2022-10-05T12:37:03.068Z,1.80
2022-10-05T12:40:12.170Z,2.13
2022-10-05T12:43:00.815Z,1.80
2022-10-05T12:45:38.081Z,2.00
2022-10-05T12:48:18.886Z,2.00
2022-10-05T12:50:51.025Z,2.20
2022-10-05T12:53:42.535Z,2.38
2022-10-05T12:56:39.151Z,2.10
2022-10-05T12:59:15.396Z,2.17
2022-10-05T13:02:05.607Z,1.97
2022-10-05T13:04:40.338Z,1.98
2022-10-05T13:07:36.390Z,2.00
2022-10-05T13:10:21.292Z,1.80
2022-10-05T13:13:07.048Z,1.95
2022-10-05T13:16:07.908Z,1.92
2022-10-05T13:18:57.645Z,1.83
2022-10-05T13:21:47.366Z,2.15
2022-10-05T13:24:36.955Z,2.00
2022-10-05T13:27:04.325Z,2.07
2022-10-05T13:29:39.814Z,1.92
2022-10-05T13:32:17.368Z,2.33
2022-10-05T13:35:14.672Z,2.20
2022-10-05T13:38:06.046Z,2.10
2022-10-05T13:40:45.855Z,2.00
2022-10-05T13:43:24.455Z,2.30
2022-10-05T13:46:02.036Z,2.22
2022-10-05T13:49:11.620Z,2.13
2022-10-05T13:51:52.412Z,2.30
2022-10-05T13:54:28.688Z,2.60
2022-10-05T13:57:06.053Z,2.30
2022-10-05T13:59:35.949Z,2.33
2022-10-05T14:02:08.607Z,2.20
2022-10-05T14:04:59.100Z,2.00
2022-10-05T14:07:34.363Z,2.30
2022-10-05T14:10:04.628Z,2.28
2022-10-05T14:12:40.551Z,2.08
2022-10-05T14:15:23.038Z,2.20
2022-10-05T14:17:51.697Z,2.50
2022-10-05T14:20:23.826Z,2.30
2022-10-05T14:23:06.241Z,2.20
2022-10-05T14:25:47.211Z,2.00
2022-10-05T14:28:33.454Z,2.10
2022-10-05T14:31:02.414Z,1.83
2022-10-05T14:33:35.785Z,1.75
2022-10-05T14:36:03.288Z,1.83
2022-10-05T14:38:49.475Z,1.67
2022-10-05T14:41:22.123Z,2.00
2022-10-05T14:44:13.541Z,1.70
2022-10-05T14:46:53.434Z,1.80
2022-10-05T14:49:25.685Z,1.90
2022-10-05T14:51:54.650Z,2.10
2022-10-05T14:54:46.081Z,2.00
2022-10-05T14:57:33.520Z,2.10
2022-10-05T15:00:16.567Z,1.77
2022-10-05T15:02:49.452Z,1.85
2022-10-05T15:05:25.379Z,1.70
2022-10-05T15:07:59.432Z,1.73
2022-10-05T15:10:42.206Z,2.03
2022-10-05T15:13:15.793Z,1.55
2022-10-05T15:15:50.998Z,1.80
2022-10-05T15:18:20.908Z,2.08
2022-10-05T15:20:56.335Z,1.80
2022-10-05T15:23:42.869Z,1.67
2022-10-05T15:26:13.312Z,1.57
2022-10-05T15:28:54.461Z,1.73
2022-10-05T15:31:40.344Z,1.70
2022-10-05T15:34:27.586Z,1.50
2022-10-05T15:37:03.129Z,1.73
2022-10-05T15:39:44.230Z,1.60
2022-10-05T15:42:17.443Z,1.60
2022-10-05T15:45:13.181Z,1.50
2022-10-05T15:47:50.877Z,1.60
2022-10-05T15:50:27.107Z,1.67
2022-10-05T15:53:04.865Z,2.08
2022-10-05T15:55:56.155Z,1.60
2022-10-05T15:58:45.166Z,1.55
2022-10-05T16:01:15.634Z,1.87
2022-10-05T16:03:57.825Z,1.60
2022-10-05T16:06:48.701Z,1.88
2022-10-05T16:09:21.560Z,1.60
2022-10-05T16:11:56.520Z,1.70
2022-10-05T16:14:54.589Z,1.70
2022-10-05T16:17:34.655Z,1.60
2022-10-05T16:20:32.715Z,1.67
2022-10-05T16:23:05.912Z,1.80
2022-10-05T16:26:02.509Z,1.70
2022-10-05T16:28:54.224Z,1.25
2022-10-05T16:31:37.438Z,1.85
2022-10-05T16:34:36.795Z,2.15
2022-10-05T16:37:28.203Z,1.00
2022-10-05T16:40:19.026Z,1.08
2022-10-05T16:43:15.215Z,1.20
2022-10-05T16:46:10.054Z,0.77
2022-10-05T16:48:59.583Z,0.77
2022-10-05T16:51:53.768Z,0.95
2022-10-05T16:57:11.705Z,0.35
2022-10-05T17:00:15.539Z,0.47
2022-10-05T17:03:05.227Z,0.45
2022-10-05T17:05:33.010Z,0.60
2022-10-05T17:08:27.795Z,0.30
2022-10-05T17:11:05.809Z,0.60
2022-10-05T17:14:15.098Z,0.60
2022-10-05T17:17:26.312Z,0.65
2022-10-05T17:20:01.220Z,0.30
2022-10-05T17:22:39.863Z,0.50
2022-10-05T17:25:27.406Z,0.50
2022-10-05T17:27:56.088Z,0.40
2022-10-05T17:31:12.634Z,0.50
2022-10-05T17:34:10.674Z,0.38
2022-10-05T17:36:54.251Z,0.43
2022-10-05T17:39:46.391Z,0.50
2022-10-05T17:42:26.086Z,0.47
2022-10-05T17:45:14.717Z,0.70
2022-10-05T17:48:09.644Z,0.50
2022-10-05T17:53:52.417Z,0.50
2022-10-05T17:56:22.113Z,0.57
2022-10-05T17:58:55.039Z,0.63
2022-10-05T18:01:30.904Z,0.70
2022-10-05T18:04:25.418Z,0.60
2022-10-05T18:06:55.341Z,0.50
2022-10-05T18:09:22.549Z,0.70
2022-10-05T18:12:17.182Z,0.80
2022-10-05T18:15:23.138Z,0.77
2022-10-05T18:17:54.819Z,0.65
2022-10-05T18:20:24.380Z,0.77
2022-10-05T18:23:14.895Z,0.73
2022-10-05T18:25:52.071Z,0.80
2022-10-05T18:28:42.559Z,0.77
2022-10-05T18:31:12.322Z,0.70
2022-10-05T18:33:42.411Z,0.68
2022-10-05T18:36:27.381Z,0.70
2022-10-05T18:39:11.625Z,0.90
2022-10-05T18:42:03.503Z,0.63
2022-10-05T18:44:49.363Z,1.52
2022-10-05T18:47:29.206Z,1.02
2022-10-05T18:50:12.658Z,0.77
2022-10-05T18:52:57.792Z,0.80
2022-10-05T18:55:44.401Z,0.93
2022-10-05T18:58:56.880Z,0.68
2022-10-05T19:01:54.241Z,1.00
2022-10-05T19:04:23.863Z,1.02
2022-10-05T19:07:06.466Z,0.80
2022-10-05T19:10:03.039Z,0.95
2022-10-05T19:13:02.049Z,1.00
2022-10-05T19:15:39.707Z,0.98
2022-10-05T19:18:13.583Z,1.40
2022-10-05T19:21:12.746Z,1.30
2022-10-05T19:24:00.724Z,1.52
2022-10-05T19:27:06.766Z,1.30
2022-10-05T19:29:51.535Z,1.00
2022-10-05T19:32:56.764Z,1.73
2022-10-05T19:35:58.411Z,0.90
2022-10-05T19:38:25.346Z,1.13
2022-10-05T19:41:36.119Z,0.65
2022-10-05T19:44:12.514Z,0.90
2022-10-05T19:47:00.894Z,1.00
2022-10-05T19:49:43.697Z,0.80
2022-10-05T19:52:41.036Z,0.75
2022-10-05T19:55:22.368Z,1.42
2022-10-05T19:57:53.957Z,1.17
2022-10-05T20:00:32.473Z,0.88
2022-10-05T20:03:19.746Z,1.00
2022-10-05T20:05:48.065Z,1.02
2022-10-05T20:08:19.812Z,0.32
2022-10-05T20:11:08.177Z,1.65
2022-10-05T20:13:35.874Z,1.08
2022-10-05T20:16:31.744Z,1.17
2022-10-05T20:19:17.965Z,0.93
2022-10-05T20:21:56.777Z,1.27
2022-10-05T20:24:26.166Z,1.08
2022-10-05T20:27:16.196Z,1.05
2022-10-05T20:29:44.971Z,1.13
2022-10-05T20:32:15.221Z,0.90
2022-10-05T20:34:44.665Z,0.88
2022-10-05T20:37:13.591Z,0.80
2022-10-05T20:39:41.550Z,0.93
2022-10-05T20:42:09.791Z,0.82
2022-10-05T20:44:37.446Z,1.60
2022-10-05T20:47:08.809Z,0.70
2022-10-05T20:49:49.491Z,1.02
2022-10-05T20:52:17.451Z,0.85
2022-10-05T20:54:47.293Z,1.00
2022-10-05T20:57:14.452Z,1.02
2022-10-05T20:59:41.524Z,1.40
2022-10-05T21:02:10.583Z,1.42
2022-10-05T21:04:41.609Z,0.77
2022-10-05T21:07:09.147Z,0.90
2022-10-05T21:09:40.961Z,1.70
2022-10-05T21:12:07.910Z,0.75
2022-10-05T21:14:36.269Z,1.10
2022-10-05T21:17:04.247Z,1.48
2022-10-05T21:19:34.129Z,1.33
2022-10-05T21:22:02.515Z,1.25
2022-10-05T21:24:29.755Z,1.40
2022-10-05T21:26:57.717Z,1.35
2022-10-05T21:29:24.694Z,0.82
2022-10-05T21:31:51.704Z,0.95
2022-10-05T21:34:18.775Z,1.00
2022-10-05T21:36:45.697Z,1.42
2022-10-05T21:39:12.579Z,1.63
2022-10-05T21:41:39.554Z,1.30
2022-10-05T21:44:06.748Z,1.05
2022-10-05T21:46:36.309Z,1.52
2022-10-05T21:49:03.955Z,0.93
2022-10-05T21:51:31.197Z,1.23
2022-10-05T21:54:02.742Z,0.93
2022-10-05T21:56:34.903Z,1.60
2022-10-05T21:59:06.214Z,1.35
2022-10-05T22:01:35.934Z,1.38
2022-10-05T22:04:05.868Z,1.08
2022-10-05T22:06:34.438Z,1.35
2022-10-05T22:09:02.110Z,1.40
2022-10-05T22:11:29.803Z,1.05
2022-10-05T22:14:02.957Z,1.20
2022-10-05T22:16:36.633Z,1.50
2022-10-05T22:19:05.828Z,1.52
2022-10-05T22:21:37.873Z,1.00
2022-10-05T22:24:05.358Z,1.00
2022-10-05T22:26:33.480Z,1.15
2022-10-05T22:29:02.329Z,1.00
2022-10-05T22:31:30.311Z,2.33
2022-10-05T22:33:57.346Z,1.55
2022-10-05T22:36:24.538Z,1.30
2022-10-05T22:38:51.641Z,0.82
2022-10-05T22:41:18.574Z,1.00
2022-10-05T22:43:50.055Z,1.33
2022-10-05T22:46:17.719Z,0.90
2022-10-05T22:48:44.699Z,1.30
2022-10-05T22:51:12.354Z,1.48
2022-10-05T22:53:39.528Z,1.55
2022-10-05T22:56:12.814Z,1.45
2022-10-05T22:58:40.984Z,1.75
2022-10-05T23:01:12.479Z,1.05
2022-10-05T23:03:47.415Z,1.48
2022-10-05T23:06:18.846Z,1.30
2022-10-05T23:08:46.274Z,1.33
2022-10-05T23:11:16.370Z,1.17
2022-10-05T23:13:44.174Z,1.17
2022-10-05T23:16:13.723Z,1.60
2022-10-05T23:18:40.805Z,1.40
2022-10-05T23:21:09.834Z,1.33
2022-10-05T23:23:38.290Z,1.30
2022-10-05T23:26:07.275Z,1.48
2022-10-05T23:28:34.743Z,1.25
2022-10-05T23:31:04.943Z,1.58
2022-10-05T23:36:01.085Z,1.45
2022-10-05T23:38:28.417Z,1.10
2022-10-05T23:40:56.327Z,1.85
2022-10-05T23:43:23.254Z,1.40
2022-10-05T23:45:50.479Z,0.98
2022-10-05T23:48:18.582Z,1.40
2022-10-05T23:50:49.625Z,1.52
2022-10-05T23:53:17.725Z,1.60
2022-10-05T23:55:44.878Z,1.50
2022-10-05T23:58:12.363Z,1.40
